createdAt,value
2022-11-17T13:04:24.722Z,58.43
2022-11-17T13:07:08.140Z,59.81
2022-11-17T13:09:36.309Z,59.12
2022-11-17T13:12:07.703Z,61.13
2022-11-17T13:14:35.930Z,59.86
2022-11-17T13:17:02.941Z,59.73
2022-11-17T13:19:33.021Z,60.04
2022-11-17T13:22:13.723Z,61.05
2022-11-17T13:24:41.988Z,60.05
2022-11-17T13:27:27.289Z,62.10
2022-11-17T13:30:12.664Z,63.80
2022-11-17T13:32:40.327Z,64.09
2022-11-17T13:35:23.274Z,62.74
2022-11-17T13:38:06.621Z,62.19
2022-11-17T13:40:34.891Z,62.34
2022-11-17T13:43:03.284Z,62.17
2022-11-17T13:45:29.954Z,61.70
2022-11-17T13:47:58.229Z,61.21
2022-11-17T13:50:27.557Z,61.33
2022-11-17T13:52:56.080Z,61.20
2022-11-17T13:55:24.051Z,60.08
2022-11-17T13:58:26.902Z,59.76
2022-11-17T14:00:57.207Z,59.94
2022-11-17T14:03:37.135Z,60.24
2022-11-17T14:06:13.849Z,59.57
2022-11-17T14:08:42.828Z,58.99
2022-11-17T14:11:12.334Z,59.89
2022-11-17T14:13:43.368Z,59.98
2022-11-17T14:16:21.523Z,59.87
2022-11-17T14:19:02.840Z,60.19
2022-11-17T14:21:30.456Z,60.18
2022-11-17T14:24:11.400Z,60.85
2022-11-17T14:26:44.646Z,60.52
2022-11-17T14:29:12.632Z,60.26
2022-11-17T14:31:39.191Z,60.56
2022-11-17T14:34:05.717Z,60.42
2022-11-17T14:36:32.631Z,61.30
2022-11-17T14:39:00.688Z,60.97
2022-11-17T14:41:27.243Z,61.08
2022-11-17T14:43:53.797Z,61.13
2022-11-17T14:46:26.872Z,61.30
2022-11-17T14:48:54.086Z,61.22
2022-11-17T14:51:21.267Z,61.89
2022-11-17T14:53:48.178Z,61.74
2022-11-17T14:56:17.727Z,61.33
2022-11-17T14:58:45.158Z,61.29
2022-11-17T15:01:15.555Z,61.51
2022-11-17T15:03:42.083Z,61.76
2022-11-17T15:06:09.545Z,61.88
2022-11-17T15:08:36.707Z,61.55
2022-11-17T15:11:04.086Z,61.39
2022-11-17T15:13:31.126Z,61.65
2022-11-17T15:16:05.053Z,62.24
2022-11-17T15:18:32.191Z,62.58
2022-11-17T15:21:04.694Z,63.44
2022-11-17T15:23:31.762Z,63.03
2022-11-17T15:25:58.618Z,63.10
2022-11-17T15:28:29.089Z,63.44
2022-11-17T15:30:57.043Z,64.00
2022-11-17T15:33:23.912Z,64.52
2022-11-17T15:36:03.641Z,64.29
2022-11-17T15:38:31.458Z,64.61
2022-11-17T15:40:57.999Z,64.76
2022-11-17T15:43:32.405Z,65.22
2022-11-17T15:46:06.768Z,64.81
2022-11-17T15:48:34.558Z,64.82
2022-11-17T15:51:05.130Z,64.77
2022-11-17T15:53:32.943Z,64.66
2022-11-17T15:56:08.206Z,64.95
2022-11-17T15:58:34.935Z,65.33
2022-11-17T16:01:28.366Z,64.98
2022-11-17T16:04:00.855Z,64.86
2022-11-17T16:06:28.430Z,65.20
2022-11-17T16:08:54.991Z,66.21
2022-11-17T16:11:21.917Z,65.92
2022-11-17T16:13:48.469Z,66.57
2022-11-17T16:16:15.706Z,66.40
2022-11-17T16:18:48.184Z,66.51
2022-11-17T16:21:15.599Z,66.10
2022-11-17T16:23:44.389Z,66.09
2022-11-17T16:26:12.031Z,66.87
2022-11-17T16:28:39.089Z,66.30
2022-11-17T16:31:22.741Z,66.07
2022-11-17T16:33:54.490Z,66.53
2022-11-17T16:36:23.568Z,66.05
2022-11-17T16:39:01.882Z,66.28
2022-11-17T16:41:31.892Z,66.14
2022-11-17T16:43:58.632Z,65.71
2022-11-17T16:46:29.057Z,65.82
2022-11-17T16:48:56.465Z,65.53
2022-11-17T16:51:23.034Z,65.68
2022-11-17T16:53:55.832Z,65.19
2022-11-17T16:56:22.434Z,65.46
2022-11-17T16:58:50.041Z,65.76
2022-11-17T17:01:18.916Z,65.32
2022-11-17T17:03:45.687Z,65.31
2022-11-17T17:06:14.241Z,65.87
2022-11-17T17:08:41.113Z,65.45
2022-11-17T17:11:16.101Z,65.85
2022-11-17T17:13:43.222Z,66.12
2022-11-17T17:16:12.122Z,65.78
2022-11-17T17:18:39.065Z,65.84
2022-11-17T17:21:06.448Z,65.61
2022-11-17T17:23:34.384Z,66.28
2022-11-17T17:26:08.339Z,65.84
2022-11-17T17:28:36.866Z,65.96
2022-11-17T17:31:04.251Z,65.78
2022-11-17T17:33:32.527Z,66.03
2022-11-17T17:36:07.324Z,66.33
2022-11-17T17:38:34.032Z,66.58
2022-11-17T17:41:08.299Z,66.51
2022-11-17T17:43:35.378Z,65.74
2022-11-17T17:46:02.982Z,66.34
2022-11-17T17:48:33.725Z,65.89
2022-11-17T17:51:04.732Z,66.36
2022-11-17T17:53:31.685Z,66.55
2022-11-17T17:55:59.622Z,66.21
2022-11-17T17:58:26.175Z,66.21
2022-11-17T18:00:52.872Z,65.87
2022-11-17T18:03:19.479Z,65.66
2022-11-17T18:05:46.691Z,65.72
2022-11-17T18:08:13.234Z,65.83
2022-11-17T18:10:39.878Z,66.08
2022-11-17T18:13:10.608Z,66.06
2022-11-17T18:15:39.583Z,66.06
2022-11-17T18:18:06.314Z,66.36
2022-11-17T18:20:32.858Z,66.55
2022-11-17T18:22:59.403Z,66.38
2022-11-17T18:25:25.918Z,66.59
2022-11-17T18:27:52.455Z,66.23
2022-11-17T18:30:19.075Z,66.65
2022-11-17T18:32:45.639Z,66.10
2022-11-17T18:35:12.221Z,66.97
2022-11-17T18:37:38.754Z,66.98
2022-11-17T18:40:05.844Z,66.51
2022-11-17T18:42:32.567Z,66.86
2022-11-17T18:44:59.158Z,66.50
2022-11-17T18:47:25.708Z,66.68
2022-11-17T18:49:52.345Z,67.00
2022-11-17T18:52:19.000Z,66.75
2022-11-17T18:54:45.697Z,66.76
2022-11-17T18:57:12.543Z,66.77
2022-11-17T18:59:39.092Z,66.82
2022-11-17T19:02:05.759Z,67.20
2022-11-17T19:04:32.475Z,67.22
2022-11-17T19:06:59.067Z,67.09
2022-11-17T19:09:25.745Z,67.19
2022-11-17T19:11:52.802Z,67.08
2022-11-17T19:14:19.361Z,66.89
2022-11-17T19:16:45.996Z,66.86
2022-11-17T19:19:13.475Z,67.22
2022-11-17T19:21:40.536Z,66.85
2022-11-17T19:24:07.614Z,67.17
2022-11-17T19:26:35.839Z,67.46
2022-11-17T19:29:05.356Z,66.92
2022-11-17T19:31:33.034Z,67.40
2022-11-17T19:33:59.743Z,67.34
2022-11-17T19:36:29.390Z,67.33
2022-11-17T19:38:57.973Z,67.60
2022-11-17T19:41:26.673Z,67.89
2022-11-17T19:43:53.775Z,68.20
2022-11-17T19:46:20.634Z,68.26
2022-11-17T19:48:47.277Z,67.96
2022-11-17T19:51:19.906Z,68.19
2022-11-17T19:53:52.389Z,67.40
2022-11-17T19:56:19.521Z,67.81
2022-11-17T19:58:46.751Z,68.29
2022-11-17T20:01:15.758Z,68.17
2022-11-17T20:03:42.979Z,68.15
2022-11-17T20:06:11.396Z,67.66
2022-11-17T20:08:38.172Z,67.47
2022-11-17T20:11:07.115Z,68.07
2022-11-17T20:13:34.138Z,68.24
2022-11-17T20:16:05.190Z,67.55
2022-11-17T20:18:35.542Z,67.81
2022-11-17T20:21:08.031Z,68.17
2022-11-17T20:23:35.407Z,67.78
2022-11-17T20:26:12.714Z,68.43
2022-11-17T20:28:39.319Z,67.81
2022-11-17T20:31:10.416Z,67.79
2022-11-17T20:33:41.534Z,68.20
2022-11-17T20:36:09.758Z,68.23
2022-11-17T20:38:36.533Z,68.09
2022-11-17T20:41:03.835Z,67.97
2022-11-17T20:43:32.869Z,68.25
2022-11-17T20:45:59.580Z,68.30
2022-11-17T20:48:27.631Z,68.46
2022-11-17T20:50:58.250Z,68.03
2022-11-17T20:53:25.229Z,68.21
2022-11-17T20:55:51.930Z,68.10
2022-11-17T20:58:18.551Z,68.37
2022-11-17T21:00:45.227Z,69.10
2022-11-17T21:03:11.837Z,68.52
2022-11-17T21:05:38.408Z,68.03
2022-11-17T21:08:05.298Z,68.66
2022-11-17T21:10:31.984Z,68.10
2022-11-17T21:12:58.838Z,68.41
2022-11-17T21:15:25.502Z,68.73
2022-11-17T21:18:10.273Z,68.50
2022-11-17T21:20:36.777Z,68.66
2022-11-17T21:23:03.350Z,68.47
2022-11-17T21:25:29.859Z,68.25
2022-11-17T21:27:56.670Z,68.91
2022-11-17T21:30:23.187Z,68.82
2022-11-17T21:32:49.745Z,68.82
2022-11-17T21:35:16.227Z,68.85
2022-11-17T21:37:42.717Z,68.91
2022-11-17T21:40:09.610Z,69.49
2022-11-17T21:42:36.399Z,69.58
2022-11-17T21:45:03.007Z,69.16
2022-11-17T21:47:29.534Z,69.74
2022-11-17T21:49:56.058Z,70.15
2022-11-17T21:52:22.680Z,69.88
2022-11-17T21:54:49.162Z,70.16
2022-11-17T21:57:15.707Z,70.28
2022-11-17T21:59:42.204Z,70.33
2022-11-17T22:02:09.919Z,70.43
2022-11-17T22:04:36.465Z,70.24
2022-11-17T22:07:03.069Z,70.08
2022-11-17T22:09:29.623Z,70.51
2022-11-17T22:11:56.324Z,70.14
2022-11-17T22:14:22.991Z,70.06
2022-11-17T22:16:53.611Z,70.20
2022-11-17T22:19:21.859Z,70.15
2022-11-17T22:21:50.096Z,70.01
2022-11-17T22:24:17.178Z,70.43
2022-11-17T22:26:44.345Z,70.26
